Аэропорт: Толмачёво. Новосибирск

ICAO: UNNT

METAR:
2022-06-26 11:00:00
UNNT 261100Z 26010G15MPS 9999 FEW033CB 31/19 Q0993 R25/090070 R34/////// NOSIG RMK QFE735/0980
METAR:
2022-06-26 09:19:00
TAF AMD UNNT 260919Z 2609/2709 26008G18MPS 9999 BKN040CB TEMPO 2609/2616 21010G20MPS -TSRA BECMG 2616/2618 24003G08MPS TEMPO 2700/2709 26007G15MPS -TSRA